Hav Tind — OZ2071 — position and weather

sailwx.info

Track history (hours):
 
Tides and Currents Weather Stations Pressure Air Temp Water Temp Dewpoint Dewpoint Depression Visibility Wind Speed Wind Dir Waves Ship Positions

Hav Tind

Last reported at 2016-Feb-06 17:24 UTC. Time now 2016-Feb-08 04:01 UTC.
Position N 62°14' W 006°48'.

Length 60 m; draft 4 m.

Type: Cargo ship. MMSI: 231565000.

Date/timePositionNaut miles runAvg speedWind from/ knotsBaromVisibWave heightAir tempDewpointWater temp
2016-Feb-06 17:24N 62°14' W 006°48'0 0.0
2016-Feb-06 16:33N 62°14' W 006°48'0 0.0
2016-Feb-06 15:27N 62°14' W 006°48'0 0.0
2016-Feb-06 14:33N 62°14' W 006°48'0 0.0
2016-Feb-06 13:33N 62°14' W 006°48'0 0.0
2016-Feb-06 12:33N 62°14' W 006°48'0 0.0
2016-Feb-06 11:33N 62°14' W 006°48'0 0.0
2016-Feb-06 10:30N 62°14' W 006°48'0 0.0
2016-Feb-06 09:33N 62°14' W 006°48'0 0.0
2016-Feb-06 08:33N 62°14' W 006°48'0 0.0
2016-Feb-06 07:33N 62°14' W 006°48'0 0.0
2016-Feb-06 06:33N 62°14' W 006°48'0 0.0
2016-Feb-06 05:33N 62°14' W 006°48'0 0.0
2016-Feb-06 04:33N 62°14' W 006°48'0 0.0
2016-Feb-06 03:33N 62°14' W 006°48'0 0.0
2016-Feb-06 02:33N 62°14' W 006°48'0 0.0
2016-Feb-06 01:33N 62°14' W 006°48'0 0.0
2016-Feb-06 00:33N 62°14' W 006°48'0 0.0
2016-Feb-05 23:33N 62°14' W 006°48'0 0.0
2016-Feb-05 22:33N 62°14' W 006°48'0 0.0
2016-Feb-05 21:33N 62°14' W 006°48'0 0.0
2016-Feb-05 20:33N 62°14' W 006°48'0 0.0
2016-Feb-05 19:33N 62°14' W 006°48'0 0.0
2016-Feb-05 18:33N 62°14' W 006°48'0 0.0
2016-Feb-05 17:33N 62°14' W 006°48'0 0.0
2016-Feb-05 16:33N 62°14' W 006°48'0 0.0
2016-Feb-05 15:33N 62°14' W 006°48'0 0.0
2016-Feb-05 14:33N 62°14' W 006°48'0 0.0
2016-Feb-05 13:33N 62°14' W 006°48'0 0.0
2016-Feb-05 12:33N 62°14' W 006°48'0 0.0
2016-Feb-05 11:33N 62°14' W 006°48'0 0.0
2016-Feb-05 10:33N 62°14' W 006°48'0 0.0
2016-Feb-05 09:33N 62°14' W 006°48'0 0.0
2016-Feb-05 08:33N 62°14' W 006°48'0 0.0
2016-Feb-05 07:33N 62°14' W 006°48'0 0.0
2016-Feb-05 06:33N 62°14' W 006°48'0 0.0
2016-Feb-05 05:33N 62°14' W 006°48'0 0.0
2016-Feb-05 04:33N 62°14' W 006°48'0 0.0
2016-Feb-05 03:33N 62°14' W 006°48'0 0.0
2016-Feb-05 02:33N 62°14' W 006°48'0 0.0
2016-Feb-05 01:33N 62°14' W 006°48'0 0.0
2016-Feb-05 00:33N 62°14' W 006°48'0 0.0
2016-Feb-04 23:33N 62°14' W 006°48'0 0.0
2016-Feb-04 22:33N 62°14' W 006°48'0 0.0
2016-Feb-04 21:33N 62°14' W 006°48'0 0.0
2016-Feb-04 20:33N 62°14' W 006°48'0 0.0
2016-Feb-04 19:30N 62°14' W 006°48'0 0.0
2016-Feb-04 18:33N 62°14' W 006°48'0 0.0
2016-Feb-04 17:33N 62°14' W 006°48'0 0.0
2016-Feb-04 16:33N 62°14' W 006°48'0 0.0
2016-Feb-04 15:33N 62°14' W 006°48'3 0.3
2016-Feb-04 07:07N 62°13' W 006°43'3 4.8
2016-Feb-04 06:33N 62°14' W 006°48'0 0.0
2016-Feb-04 05:33N 62°14' W 006°48'0 0.0
2016-Feb-04 04:33N 62°14' W 006°48'0 0.0
2016-Feb-04 03:33N 62°14' W 006°48'0 0.0
2016-Feb-04 02:33N 62°14' W 006°48'0 0.0
2016-Feb-04 01:33N 62°14' W 006°48'0 0.0
2016-Feb-04 00:33N 62°14' W 006°48'0 0.0
2016-Feb-03 23:33N 62°14' W 006°48'0 0.0
2016-Feb-03 22:33N 62°14' W 006°48'0 0.0
2016-Feb-03 21:33N 62°14' W 006°48'0 0.0
2016-Feb-03 20:33N 62°14' W 006°48'0 0.0
2016-Feb-03 19:33N 62°14' W 006°48'0 0.0
2016-Feb-03 18:33N 62°14' W 006°48'0 0.0
2016-Feb-03 17:33N 62°14' W 006°48'0 0.0
2016-Feb-03 16:33N 62°14' W 006°48'0 0.1
2016-Feb-03 15:31N 62°14' W 006°48'9 8.6
2016-Feb-03 14:26N 62°08' W 006°34'9 9.8
2016-Feb-03 13:33N 62°00' W 006°44'1 1.1
2016-Feb-03 12:32N 61°59' W 006°45'6 6.3
2016-Feb-03 11:33N 62°05' W 006°49'1 0.9
2016-Feb-03 10:33N 62°06' W 006°50'1 0.9
2016-Feb-03 09:33N 62°07' W 006°48'4 4.2
2016-Feb-03 08:33N 62°04' W 006°43'10 6.9
2016-Feb-03 07:03N 62°14' W 006°46'1 2.3
2016-Feb-03 06:33N 62°14' W 006°48'0 0.0
2016-Feb-03 05:33N 62°14' W 006°48'0 0.0
2016-Feb-03 04:30N 62°14' W 006°48'0 0.0
2016-Feb-03 03:33N 62°14' W 006°48'0 0.0
2016-Feb-03 02:33N 62°14' W 006°48'0 0.0
2016-Feb-03 01:30N 62°14' W 006°48'0 0.0
2016-Feb-03 00:33N 62°14' W 006°48'0 0.0
2016-Feb-02 23:30N 62°14' W 006°48'0 0.0
2016-Feb-02 22:33N 62°14' W 006°48'0 0.0
2016-Feb-02 21:33N 62°14' W 006°48'0 0.0
2016-Feb-02 20:33N 62°14' W 006°48'0 0.0
2016-Feb-02 19:33N 62°14' W 006°48'0 0.0
2016-Feb-02 18:30N 62°14' W 006°48'0 0.0
2016-Feb-02 17:33N 62°14' W 006°48'0 0.0
2016-Feb-02 16:30N 62°14' W 006°48'0 0.0
2016-Feb-02 15:30N 62°14' W 006°48'0 0.0
2016-Feb-02 14:33N 62°14' W 006°48'0 0.0
2016-Feb-02 13:33N 62°14' W 006°48'9 7.9
2016-Feb-02 12:25N 62°08' W 006°35'3 3.4
2016-Feb-02 11:31N 62°08' W 006°41'6 3.3
2016-Feb-02 09:33N 62°14' W 006°48'0 0.4
2016-Feb-02 08:31N 62°14' W 006°48'0 0.0
2016-Feb-02 07:31N 62°14' W 006°48'0 0.0
2016-Feb-02 06:31N 62°14' W 006°48'0 0.0
2016-Feb-02 05:31N 62°14' W 006°48'0 0.0
2016-Feb-02 04:31N 62°14' W 006°48'0 0.0
2016-Feb-02 03:31N 62°14' W 006°48'0 0.0
2016-Feb-02 02:31N 62°14' W 006°48'0 0.0
2016-Feb-02 01:31N 62°14' W 006°48'0 0.0
2016-Feb-02 00:31N 62°14' W 006°48'0 0.0
2016-Feb-01 23:31N 62°14' W 006°48'0 0.0
2016-Feb-01 22:31N 62°14' W 006°48'0 0.0
2016-Feb-01 21:31N 62°14' W 006°48'0 0.0
2016-Feb-01 20:31N 62°14' W 006°48'0 0.0
2016-Feb-01 19:31N 62°14' W 006°48'0 0.0
2016-Feb-01 11:31N 62°14' W 006°48'0 0.0
2016-Feb-01 10:31N 62°14' W 006°48'0 0.0
2016-Feb-01 09:31N 62°14' W 006°48'0 0.0
2016-Feb-01 08:31N 62°14' W 006°48'0 0.0
2016-Feb-01 07:31N 62°14' W 006°48'0 0.0
2016-Feb-01 06:31N 62°14' W 006°48'0 0.0
2016-Feb-01 05:31N 62°14' W 006°48'0 0.0
2016-Feb-01 04:31N 62°14' W 006°48'0 0.0
2016-Feb-01 03:31N 62°14' W 006°48'0 0.0
2016-Feb-01 02:31N 62°14' W 006°48'0 0.0
2016-Feb-01 01:31N 62°14' W 006°48'0 0.0
2016-Feb-01 00:31N 62°14' W 006°48'0 0.0
2016-Jan-31 23:31N 62°14' W 006°48'0 0.0
2016-Jan-31 22:31N 62°14' W 006°48'0 0.0
2016-Jan-31 21:31N 62°14' W 006°48'0 0.0
2016-Jan-31 20:31N 62°14' W 006°48'0 0.0
2016-Jan-31 19:31N 62°14' W 006°48'0 0.0
2016-Jan-31 18:31N 62°14' W 006°48'0 0.0
2016-Jan-31 17:31N 62°14' W 006°48'0 0.0
2016-Jan-31 16:31N 62°14' W 006°48'0 0.0
2016-Jan-31 15:31N 62°14' W 006°48'0 0.0
2016-Jan-31 14:31N 62°14' W 006°48'0 0.0
2016-Jan-31 13:31N 62°14' W 006°48'0 0.0
2016-Jan-31 12:31N 62°14' W 006°48'0 0.0
2016-Jan-31 11:31N 62°14' W 006°48'0 0.0
2016-Jan-31 10:31N 62°14' W 006°48'0 0.0
2016-Jan-31 09:31N 62°14' W 006°48'0 0.0
2016-Jan-31 08:31N 62°14' W 006°48'0 0.0
2016-Jan-31 07:31N 62°14' W 006°48'0 0.0
2016-Jan-31 06:31N 62°14' W 006°48'0 0.0
2016-Jan-31 05:31N 62°14' W 006°48'0 0.0
2016-Jan-31 04:31N 62°14' W 006°48'0 0.0
2016-Jan-31 03:31N 62°14' W 006°48'0 0.0
2016-Jan-31 02:31N 62°14' W 006°48'0 0.0
2016-Jan-31 01:31N 62°14' W 006°48'0 0.0
2016-Jan-31 00:31N 62°14' W 006°48'0 0.0
2016-Jan-30 23:31N 62°14' W 006°48'0 0.0
2016-Jan-30 22:31N 62°14' W 006°48'0 0.0
2016-Jan-30 21:31N 62°14' W 006°48'0 0.0
2016-Jan-30 20:31N 62°14' W 006°48'0 0.0
2016-Jan-30 19:31N 62°14' W 006°48'0 0.0
2016-Jan-30 18:31N 62°14' W 006°48'0 0.0
2016-Jan-30 17:31N 62°14' W 006°48'0 0.0
2016-Jan-30 16:31N 62°14' W 006°48'0 0.0
2016-Jan-30 15:31N 62°14' W 006°48'0 0.0
2016-Jan-30 14:31N 62°14' W 006°48'0 0.0
2016-Jan-30 13:31N 62°14' W 006°48'0 0.0
2016-Jan-30 12:31N 62°14' W 006°48'0 0.0
2016-Jan-30 11:31N 62°14' W 006°48'0 0.0
2016-Jan-30 10:31N 62°14' W 006°48'0 0.0
2016-Jan-30 09:31N 62°14' W 006°48'0 0.0
2016-Jan-30 08:31N 62°14' W 006°48'0 0.0
2016-Jan-30 07:31N 62°14' W 006°48'0 0.0
2016-Jan-30 06:31N 62°14' W 006°48'0 0.0
2016-Jan-30 05:31N 62°14' W 006°48'0 0.0
2016-Jan-30 04:31N 62°14' W 006°48'0 0.0
2016-Jan-30 03:31N 62°14' W 006°48'0 0.0
2016-Jan-30 02:31N 62°14' W 006°48'0 0.0
2016-Jan-30 01:31N 62°14' W 006°48'0 0.0
2016-Jan-30 00:31N 62°14' W 006°48'0 0.0
2016-Jan-29 23:31N 62°14' W 006°48'0 0.0
2016-Jan-29 22:31N 62°14' W 006°48'0 0.0
2016-Jan-29 21:31N 62°14' W 006°48'0 0.0
2016-Jan-29 20:31N 62°14' W 006°48'0 0.0
2016-Jan-29 19:31N 62°14' W 006°48'0 0.0
2016-Jan-29 18:31N 62°14' W 006°48'0 0.0
2016-Jan-29 17:28N 62°14' W 006°48'0 0.0
2016-Jan-29 16:28N 62°14' W 006°48'0 0.0
2016-Jan-29 15:28N 62°14' W 006°48'0 0.0
2016-Jan-29 14:31N 62°14' W 006°48'0 0.0
2016-Jan-29 13:31N 62°14' W 006°48'0 0.0
2016-Jan-29 12:25N 62°14' W 006°48'0 0.0
2016-Jan-29 11:31N 62°14' W 006°48'0 0.0
2016-Jan-29 10:31N 62°14' W 006°48'0 0.0
2016-Jan-29 09:31N 62°14' W 006°48'0 0.0
2016-Jan-29 08:31N 62°14' W 006°48'0 0.0
2016-Jan-29 07:31N 62°14' W 006°48'0 0.0
2016-Jan-29 06:31N 62°14' W 006°48'0 0.0
2016-Jan-29 05:31N 62°14' W 006°48'0 0.0
2016-Jan-29 04:31N 62°14' W 006°48'0 0.0
2016-Jan-29 03:31N 62°14' W 006°48'0 0.0
2016-Jan-29 02:31N 62°14' W 006°48'0 0.0
2016-Jan-29 01:31N 62°14' W 006°48'0 0.0
2016-Jan-29 00:31N 62°14' W 006°48'0 0.0
2016-Jan-28 23:31N 62°14' W 006°48'0 0.0
2016-Jan-28 22:31N 62°14' W 006°48'0 0.0
2016-Jan-28 21:31N 62°14' W 006°48'0 0.0
2016-Jan-28 20:31N 62°14' W 006°48'0 0.0
2016-Jan-28 19:31N 62°14' W 006°48'0 0.0
2016-Jan-28 18:31N 62°14' W 006°48'0 0.0
2016-Jan-28 17:28N 62°14' W 006°48'0 0.0
2016-Jan-28 16:31N 62°14' W 006°48'9 7.6
2016-Jan-28 15:21N 62°08' W 006°35'5 6.6
2016-Jan-28 14:33N 62°04' W 006°44'3 3.2
2016-Jan-28 13:32N 62°08' W 006°44'4 3.9
2016-Jan-28 12:33N 62°04' W 006°44'2 0.9
2016-Jan-28 10:34N 62°02' W 006°42'12 6.1
2016-Jan-28 08:32N 62°14' W 006°48'0 0.0
2016-Jan-28 07:32N 62°14' W 006°48'0 0.0
2016-Jan-28 06:32N 62°14' W 006°48'0 0.0
2016-Jan-28 05:32N 62°14' W 006°48'0 0.0
2016-Jan-28 04:32N 62°14' W 006°48'0 0.0
2016-Jan-28 03:32N 62°14' W 006°48'0 0.0
2016-Jan-28 02:32N 62°14' W 006°48'0 0.0
2016-Jan-28 01:32N 62°14' W 006°48'0 0.0
2016-Jan-28 00:32N 62°14' W 006°48'0 0.0
2016-Jan-27 23:32N 62°14' W 006°48'0 0.0
2016-Jan-27 22:32N 62°14' W 006°48'0 0.0
2016-Jan-27 21:32N 62°14' W 006°48'0 0.0
2016-Jan-27 20:32N 62°14' W 006°48'0 0.0
2016-Jan-27 19:32N 62°14' W 006°48'0 0.0
2016-Jan-27 18:32N 62°14' W 006°48'0 0.1
2016-Jan-27 17:33N 62°14' W 006°48'  
Track history (hours):
 
Tides and Currents Weather Stations Pressure Air Temp Water Temp Dewpoint Dewpoint Depression Visibility Wind Speed Wind Dir Waves Ship Positions

Hav Tind

Last reported at 2016-Feb-06 17:24 UTC. Time now 2016-Feb-08 04:01 UTC.
Position N 62°14' W 006°48'.

Length 60 m; draft 4 m.

Type: Cargo ship. MMSI: 231565000.

Date/timePositionNaut miles runAvg speedWind from/ knotsBaromVisibWave heightAir tempDewpointWater temp
2016-Feb-06 17:24N 62°14' W 006°48'0 0.0
2016-Feb-06 16:33N 62°14' W 006°48'0 0.0
2016-Feb-06 15:27N 62°14' W 006°48'0 0.0
2016-Feb-06 14:33N 62°14' W 006°48'0 0.0
2016-Feb-06 13:33N 62°14' W 006°48'0 0.0
2016-Feb-06 12:33N 62°14' W 006°48'0 0.0
2016-Feb-06 11:33N 62°14' W 006°48'0 0.0
2016-Feb-06 10:30N 62°14' W 006°48'0 0.0
2016-Feb-06 09:33N 62°14' W 006°48'0 0.0
2016-Feb-06 08:33N 62°14' W 006°48'0 0.0
2016-Feb-06 07:33N 62°14' W 006°48'0 0.0
2016-Feb-06 06:33N 62°14' W 006°48'0 0.0
2016-Feb-06 05:33N 62°14' W 006°48'0 0.0
2016-Feb-06 04:33N 62°14' W 006°48'0 0.0
2016-Feb-06 03:33N 62°14' W 006°48'0 0.0
2016-Feb-06 02:33N 62°14' W 006°48'0 0.0
2016-Feb-06 01:33N 62°14' W 006°48'0 0.0
2016-Feb-06 00:33N 62°14' W 006°48'0 0.0
2016-Feb-05 23:33N 62°14' W 006°48'0 0.0
2016-Feb-05 22:33N 62°14' W 006°48'0 0.0
2016-Feb-05 21:33N 62°14' W 006°48'0 0.0
2016-Feb-05 20:33N 62°14' W 006°48'0 0.0
2016-Feb-05 19:33N 62°14' W 006°48'0 0.0
2016-Feb-05 18:33N 62°14' W 006°48'0 0.0
2016-Feb-05 17:33N 62°14' W 006°48'0 0.0
2016-Feb-05 16:33N 62°14' W 006°48'0 0.0
2016-Feb-05 15:33N 62°14' W 006°48'0 0.0
2016-Feb-05 14:33N 62°14' W 006°48'0 0.0
2016-Feb-05 13:33N 62°14' W 006°48'0 0.0
2016-Feb-05 12:33N 62°14' W 006°48'0 0.0
2016-Feb-05 11:33N 62°14' W 006°48'0 0.0
2016-Feb-05 10:33N 62°14' W 006°48'0 0.0
2016-Feb-05 09:33N 62°14' W 006°48'0 0.0
2016-Feb-05 08:33N 62°14' W 006°48'0 0.0
2016-Feb-05 07:33N 62°14' W 006°48'0 0.0
2016-Feb-05 06:33N 62°14' W 006°48'0 0.0
2016-Feb-05 05:33N 62°14' W 006°48'0 0.0
2016-Feb-05 04:33N 62°14' W 006°48'0 0.0
2016-Feb-05 03:33N 62°14' W 006°48'0 0.0
2016-Feb-05 02:33N 62°14' W 006°48'0 0.0
2016-Feb-05 01:33N 62°14' W 006°48'0 0.0
2016-Feb-05 00:33N 62°14' W 006°48'0 0.0
2016-Feb-04 23:33N 62°14' W 006°48'0 0.0
2016-Feb-04 22:33N 62°14' W 006°48'0 0.0
2016-Feb-04 21:33N 62°14' W 006°48'0 0.0
2016-Feb-04 20:33N 62°14' W 006°48'0 0.0
2016-Feb-04 19:30N 62°14' W 006°48'0 0.0
2016-Feb-04 18:33N 62°14' W 006°48'0 0.0
2016-Feb-04 17:33N 62°14' W 006°48'0 0.0
2016-Feb-04 16:33N 62°14' W 006°48'0 0.0
2016-Feb-04 15:33N 62°14' W 006°48'3 0.3
2016-Feb-04 07:07N 62°13' W 006°43'3 4.8
2016-Feb-04 06:33N 62°14' W 006°48'0 0.0
2016-Feb-04 05:33N 62°14' W 006°48'0 0.0
2016-Feb-04 04:33N 62°14' W 006°48'0 0.0
2016-Feb-04 03:33N 62°14' W 006°48'0 0.0
2016-Feb-04 02:33N 62°14' W 006°48'0 0.0
2016-Feb-04 01:33N 62°14' W 006°48'0 0.0
2016-Feb-04 00:33N 62°14' W 006°48'0 0.0
2016-Feb-03 23:33N 62°14' W 006°48'0 0.0
2016-Feb-03 22:33N 62°14' W 006°48'0 0.0
2016-Feb-03 21:33N 62°14' W 006°48'0 0.0
2016-Feb-03 20:33N 62°14' W 006°48'0 0.0
2016-Feb-03 19:33N 62°14' W 006°48'0 0.0
2016-Feb-03 18:33N 62°14' W 006°48'0 0.0
2016-Feb-03 17:33N 62°14' W 006°48'0 0.0
2016-Feb-03 16:33N 62°14' W 006°48'0 0.1
2016-Feb-03 15:31N 62°14' W 006°48'9 8.6
2016-Feb-03 14:26N 62°08' W 006°34'9 9.8
2016-Feb-03 13:33N 62°00' W 006°44'1 1.1
2016-Feb-03 12:32N 61°59' W 006°45'6 6.3
2016-Feb-03 11:33N 62°05' W 006°49'1 0.9
2016-Feb-03 10:33N 62°06' W 006°50'1 0.9
2016-Feb-03 09:33N 62°07' W 006°48'4 4.2
2016-Feb-03 08:33N 62°04' W 006°43'10 6.9
2016-Feb-03 07:03N 62°14' W 006°46'1 2.3
2016-Feb-03 06:33N 62°14' W 006°48'0 0.0
2016-Feb-03 05:33N 62°14' W 006°48'0 0.0
2016-Feb-03 04:30N 62°14' W 006°48'0 0.0
2016-Feb-03 03:33N 62°14' W 006°48'0 0.0
2016-Feb-03 02:33N 62°14' W 006°48'0 0.0
2016-Feb-03 01:30N 62°14' W 006°48'0 0.0
2016-Feb-03 00:33N 62°14' W 006°48'0 0.0
2016-Feb-02 23:30N 62°14' W 006°48'0 0.0
2016-Feb-02 22:33N 62°14' W 006°48'0 0.0
2016-Feb-02 21:33N 62°14' W 006°48'0 0.0
2016-Feb-02 20:33N 62°14' W 006°48'0 0.0
2016-Feb-02 19:33N 62°14' W 006°48'0 0.0
2016-Feb-02 18:30N 62°14' W 006°48'0 0.0
2016-Feb-02 17:33N 62°14' W 006°48'0 0.0
2016-Feb-02 16:30N 62°14' W 006°48'0 0.0
2016-Feb-02 15:30N 62°14' W 006°48'0 0.0
2016-Feb-02 14:33N 62°14' W 006°48'0 0.0
2016-Feb-02 13:33N 62°14' W 006°48'9 7.9
2016-Feb-02 12:25N 62°08' W 006°35'3 3.4
2016-Feb-02 11:31N 62°08' W 006°41'6 3.3
2016-Feb-02 09:33N 62°14' W 006°48'0 0.4
2016-Feb-02 08:31N 62°14' W 006°48'0 0.0
2016-Feb-02 07:31N 62°14' W 006°48'0 0.0
2016-Feb-02 06:31N 62°14' W 006°48'0 0.0
2016-Feb-02 05:31N 62°14' W 006°48'0 0.0
2016-Feb-02 04:31N 62°14' W 006°48'0 0.0
2016-Feb-02 03:31N 62°14' W 006°48'0 0.0
2016-Feb-02 02:31N 62°14' W 006°48'0 0.0
2016-Feb-02 01:31N 62°14' W 006°48'0 0.0
2016-Feb-02 00:31N 62°14' W 006°48'0 0.0
2016-Feb-01 23:31N 62°14' W 006°48'0 0.0
2016-Feb-01 22:31N 62°14' W 006°48'0 0.0
2016-Feb-01 21:31N 62°14' W 006°48'0 0.0
2016-Feb-01 20:31N 62°14' W 006°48'0 0.0
2016-Feb-01 19:31N 62°14' W 006°48'0 0.0
2016-Feb-01 11:31N 62°14' W 006°48'0 0.0
2016-Feb-01 10:31N 62°14' W 006°48'0 0.0
2016-Feb-01 09:31N 62°14' W 006°48'0 0.0
2016-Feb-01 08:31N 62°14' W 006°48'0 0.0
2016-Feb-01 07:31N 62°14' W 006°48'0 0.0
2016-Feb-01 06:31N 62°14' W 006°48'0 0.0
2016-Feb-01 05:31N 62°14' W 006°48'0 0.0
2016-Feb-01 04:31N 62°14' W 006°48'0 0.0
2016-Feb-01 03:31N 62°14' W 006°48'0 0.0
2016-Feb-01 02:31N 62°14' W 006°48'0 0.0
2016-Feb-01 01:31N 62°14' W 006°48'0 0.0
2016-Feb-01 00:31N 62°14' W 006°48'0 0.0
2016-Jan-31 23:31N 62°14' W 006°48'0 0.0
2016-Jan-31 22:31N 62°14' W 006°48'0 0.0
2016-Jan-31 21:31N 62°14' W 006°48'0 0.0
2016-Jan-31 20:31N 62°14' W 006°48'0 0.0
2016-Jan-31 19:31N 62°14' W 006°48'0 0.0
2016-Jan-31 18:31N 62°14' W 006°48'0 0.0
2016-Jan-31 17:31N 62°14' W 006°48'0 0.0
2016-Jan-31 16:31N 62°14' W 006°48'0 0.0
2016-Jan-31 15:31N 62°14' W 006°48'0 0.0
2016-Jan-31 14:31N 62°14' W 006°48'0 0.0
2016-Jan-31 13:31N 62°14' W 006°48'0 0.0
2016-Jan-31 12:31N 62°14' W 006°48'0 0.0
2016-Jan-31 11:31N 62°14' W 006°48'0 0.0
2016-Jan-31 10:31N 62°14' W 006°48'0 0.0
2016-Jan-31 09:31N 62°14' W 006°48'0 0.0
2016-Jan-31 08:31N 62°14' W 006°48'0 0.0
2016-Jan-31 07:31N 62°14' W 006°48'0 0.0
2016-Jan-31 06:31N 62°14' W 006°48'0 0.0
2016-Jan-31 05:31N 62°14' W 006°48'0 0.0
2016-Jan-31 04:31N 62°14' W 006°48'0 0.0
2016-Jan-31 03:31N 62°14' W 006°48'0 0.0
2016-Jan-31 02:31N 62°14' W 006°48'0 0.0
2016-Jan-31 01:31N 62°14' W 006°48'0 0.0
2016-Jan-31 00:31N 62°14' W 006°48'0 0.0
2016-Jan-30 23:31N 62°14' W 006°48'0 0.0
2016-Jan-30 22:31N 62°14' W 006°48'0 0.0
2016-Jan-30 21:31N 62°14' W 006°48'0 0.0
2016-Jan-30 20:31N 62°14' W 006°48'0 0.0
2016-Jan-30 19:31N 62°14' W 006°48'0 0.0
2016-Jan-30 18:31N 62°14' W 006°48'0 0.0
2016-Jan-30 17:31N 62°14' W 006°48'0 0.0
2016-Jan-30 16:31N 62°14' W 006°48'0 0.0
2016-Jan-30 15:31N 62°14' W 006°48'0 0.0
2016-Jan-30 14:31N 62°14' W 006°48'0 0.0
2016-Jan-30 13:31N 62°14' W 006°48'0 0.0
2016-Jan-30 12:31N 62°14' W 006°48'0 0.0
2016-Jan-30 11:31N 62°14' W 006°48'0 0.0
2016-Jan-30 10:31N 62°14' W 006°48'0 0.0
2016-Jan-30 09:31N 62°14' W 006°48'0 0.0
2016-Jan-30 08:31N 62°14' W 006°48'0 0.0
2016-Jan-30 07:31N 62°14' W 006°48'0 0.0
2016-Jan-30 06:31N 62°14' W 006°48'0 0.0
2016-Jan-30 05:31N 62°14' W 006°48'0 0.0
2016-Jan-30 04:31N 62°14' W 006°48'0 0.0
2016-Jan-30 03:31N 62°14' W 006°48'0 0.0
2016-Jan-30 02:31N 62°14' W 006°48'0 0.0
2016-Jan-30 01:31N 62°14' W 006°48'0 0.0
2016-Jan-30 00:31N 62°14' W 006°48'0 0.0
2016-Jan-29 23:31N 62°14' W 006°48'0 0.0
2016-Jan-29 22:31N 62°14' W 006°48'0 0.0
2016-Jan-29 21:31N 62°14' W 006°48'0 0.0
2016-Jan-29 20:31N 62°14' W 006°48'0 0.0
2016-Jan-29 19:31N 62°14' W 006°48'0 0.0
2016-Jan-29 18:31N 62°14' W 006°48'0 0.0
2016-Jan-29 17:28N 62°14' W 006°48'0 0.0
2016-Jan-29 16:28N 62°14' W 006°48'0 0.0
2016-Jan-29 15:28N 62°14' W 006°48'0 0.0
2016-Jan-29 14:31N 62°14' W 006°48'0 0.0
2016-Jan-29 13:31N 62°14' W 006°48'0 0.0
2016-Jan-29 12:25N 62°14' W 006°48'0 0.0
2016-Jan-29 11:31N 62°14' W 006°48'0 0.0
2016-Jan-29 10:31N 62°14' W 006°48'0 0.0
2016-Jan-29 09:31N 62°14' W 006°48'0 0.0
2016-Jan-29 08:31N 62°14' W 006°48'0 0.0
2016-Jan-29 07:31N 62°14' W 006°48'0 0.0
2016-Jan-29 06:31N 62°14' W 006°48'0 0.0
2016-Jan-29 05:31N 62°14' W 006°48'0 0.0
2016-Jan-29 04:31N 62°14' W 006°48'0 0.0
2016-Jan-29 03:31N 62°14' W 006°48'0 0.0
2016-Jan-29 02:31N 62°14' W 006°48'0 0.0
2016-Jan-29 01:31N 62°14' W 006°48'0 0.0
2016-Jan-29 00:31N 62°14' W 006°48'0 0.0
2016-Jan-28 23:31N 62°14' W 006°48'0 0.0
2016-Jan-28 22:31N 62°14' W 006°48'0 0.0
2016-Jan-28 21:31N 62°14' W 006°48'0 0.0
2016-Jan-28 20:31N 62°14' W 006°48'0 0.0
2016-Jan-28 19:31N 62°14' W 006°48'0 0.0
2016-Jan-28 18:31N 62°14' W 006°48'0 0.0
2016-Jan-28 17:28N 62°14' W 006°48'0 0.0
2016-Jan-28 16:31N 62°14' W 006°48'9 7.6
2016-Jan-28 15:21N 62°08' W 006°35'5 6.6
2016-Jan-28 14:33N 62°04' W 006°44'3 3.2
2016-Jan-28 13:32N 62°08' W 006°44'4 3.9
2016-Jan-28 12:33N 62°04' W 006°44'2 0.9
2016-Jan-28 10:34N 62°02' W 006°42'12 6.1
2016-Jan-28 08:32N 62°14' W 006°48'0 0.0
2016-Jan-28 07:32N 62°14' W 006°48'0 0.0
2016-Jan-28 06:32N 62°14' W 006°48'0 0.0
2016-Jan-28 05:32N 62°14' W 006°48'0 0.0
2016-Jan-28 04:32N 62°14' W 006°48'0 0.0
2016-Jan-28 03:32N 62°14' W 006°48'0 0.0
2016-Jan-28 02:32N 62°14' W 006°48'0 0.0
2016-Jan-28 01:32N 62°14' W 006°48'0 0.0
2016-Jan-28 00:32N 62°14' W 006°48'0 0.0
2016-Jan-27 23:32N 62°14' W 006°48'0 0.0
2016-Jan-27 22:32N 62°14' W 006°48'0 0.0
2016-Jan-27 21:32N 62°14' W 006°48'0 0.0
2016-Jan-27 20:32N 62°14' W 006°48'0 0.0
2016-Jan-27 19:32N 62°14' W 006°48'0 0.0
2016-Jan-27 18:32N 62°14' W 006°48'0 0.1
2016-Jan-27 17:33N 62°14' W 006°48'  

Dump ship's entire track history